sensor_id;sensor_type;location;lat;lon;timestamp;P1;durP1;ratioP1;P2;durP2;ratioP2
35126;SDS011;21300;52.006;5.798;2023-08-06T00:00:24;6.93;;;4.53;;
35126;SDS011;21300;52.006;5.798;2023-08-06T00:02:49;8.23;;;4.90;;
35126;SDS011;21300;52.006;5.798;2023-08-06T00:05:15;7.63;;;5.20;;
35126;SDS011;21300;52.006;5.798;2023-08-06T00:07:46;6.95;;;5.18;;
35126;SDS011;21300;52.006;5.798;2023-08-06T00:10:12;7.35;;;4.85;;
35126;SDS011;21300;52.006;5.798;2023-08-06T00:12:38;5.88;;;4.82;;
35126;SDS011;21300;52.006;5.798;2023-08-06T00:15:04;7.55;;;5.32;;
35126;SDS011;21300;52.006;5.798;2023-08-06T00:17:30;6.20;;;4.97;;
35126;SDS011;21300;52.006;5.798;2023-08-06T00:19:56;9.77;;;5.72;;
35126;SDS011;21300;52.006;5.798;2023-08-06T00:22:21;9.43;;;5.50;;
35126;SDS011;21300;52.006;5.798;2023-08-06T00:24:47;7.63;;;5.85;;
35126;SDS011;21300;52.006;5.798;2023-08-06T00:27:12;7.53;;;5.60;;
35126;SDS011;21300;52.006;5.798;2023-08-06T00:29:38;13.63;;;6.80;;
35126;SDS011;21300;52.006;5.798;2023-08-06T00:32:03;8.52;;;5.57;;
35126;SDS011;21300;52.006;5.798;2023-08-06T00:34:29;7.85;;;5.63;;
35126;SDS011;21300;52.006;5.798;2023-08-06T00:36:54;9.30;;;5.97;;
35126;SDS011;21300;52.006;5.798;2023-08-06T00:39:20;9.10;;;5.50;;
35126;SDS011;21300;52.006;5.798;2023-08-06T00:41:45;7.45;;;5.57;;
35126;SDS011;21300;52.006;5.798;2023-08-06T00:44:11;10.82;;;6.22;;
35126;SDS011;21300;52.006;5.798;2023-08-06T00:46:37;10.13;;;6.40;;
35126;SDS011;21300;52.006;5.798;2023-08-06T00:49:03;10.52;;;7.32;;
35126;SDS011;21300;52.006;5.798;2023-08-06T00:51:29;10.43;;;6.97;;
35126;SDS011;21300;52.006;5.798;2023-08-06T00:53:55;11.07;;;7.75;;
35126;SDS011;21300;52.006;5.798;2023-08-06T00:56:21;8.80;;;6.70;;
35126;SDS011;21300;52.006;5.798;2023-08-06T00:58:47;10.13;;;7.35;;
35126;SDS011;21300;52.006;5.798;2023-08-06T01:01:12;9.80;;;7.47;;
35126;SDS011;21300;52.006;5.798;2023-08-06T01:03:38;10.80;;;7.40;;
35126;SDS011;21300;52.006;5.798;2023-08-06T01:06:04;10.38;;;7.78;;
35126;SDS011;21300;52.006;5.798;2023-08-06T01:11:23;11.07;;;8.57;;
35126;SDS011;21300;52.006;5.798;2023-08-06T01:14:06;9.63;;;8.45;;
35126;SDS011;21300;52.006;5.798;2023-08-06T01:16:38;15.85;;;8.77;;
35126;SDS011;21300;52.006;5.798;2023-08-06T01:19:15;14.82;;;9.48;;
35126;SDS011;21300;52.006;5.798;2023-08-06T01:21:44;11.73;;;8.70;;
35126;SDS011;21300;52.006;5.798;2023-08-06T01:24:09;12.98;;;9.25;;
35126;SDS011;21300;52.006;5.798;2023-08-06T01:26:37;11.32;;;8.63;;
35126;SDS011;21300;52.006;5.798;2023-08-06T01:29:14;12.95;;;9.23;;
35126;SDS011;21300;52.006;5.798;2023-08-06T01:31:44;11.15;;;8.73;;
35126;SDS011;21300;52.006;5.798;2023-08-06T01:34:23;8.25;;;7.43;;
35126;SDS011;21300;52.006;5.798;2023-08-06T01:36:50;8.93;;;7.03;;
35126;SDS011;21300;52.006;5.798;2023-08-06T01:39:17;8.43;;;6.28;;
35126;SDS011;21300;52.006;5.798;2023-08-06T01:41:46;6.57;;;5.38;;
35126;SDS011;21300;52.006;5.798;2023-08-06T01:44:12;8.27;;;5.68;;
35126;SDS011;21300;52.006;5.798;2023-08-06T01:46:38;7.65;;;5.03;;
35126;SDS011;21300;52.006;5.798;2023-08-06T01:49:03;5.38;;;4.75;;
35126;SDS011;21300;52.006;5.798;2023-08-06T01:51:29;7.78;;;4.80;;
35126;SDS011;21300;52.006;5.798;2023-08-06T01:53:54;5.47;;;4.03;;
35126;SDS011;21300;52.006;5.798;2023-08-06T01:56:20;4.40;;;4.00;;
35126;SDS011;21300;52.006;5.798;2023-08-06T01:58:45;6.00;;;4.43;;
35126;SDS011;21300;52.006;5.798;2023-08-06T02:01:11;5.43;;;4.22;;
35126;SDS011;21300;52.006;5.798;2023-08-06T02:03:36;6.78;;;4.85;;
35126;SDS011;21300;52.006;5.798;2023-08-06T02:06:02;6.93;;;5.10;;
35126;SDS011;21300;52.006;5.798;2023-08-06T02:08:27;6.15;;;5.35;;
35126;SDS011;21300;52.006;5.798;2023-08-06T02:10:53;7.78;;;5.72;;
35126;SDS011;21300;52.006;5.798;2023-08-06T02:13:19;9.45;;;6.72;;
35126;SDS011;21300;52.006;5.798;2023-08-06T02:15:45;8.23;;;6.55;;
35126;SDS011;21300;52.006;5.798;2023-08-06T02:18:13;12.05;;;6.55;;
35126;SDS011;21300;52.006;5.798;2023-08-06T02:20:40;9.68;;;7.00;;
35126;SDS011;21300;52.006;5.798;2023-08-06T02:23:06;11.27;;;7.40;;
35126;SDS011;21300;52.006;5.798;2023-08-06T02:26:02;7.82;;;6.90;;
35126;SDS011;21300;52.006;5.798;2023-08-06T02:28:29;11.23;;;8.13;;
35126;SDS011;21300;52.006;5.798;2023-08-06T02:30:58;10.73;;;7.97;;
35126;SDS011;21300;52.006;5.798;2023-08-06T02:33:23;11.18;;;7.88;;
35126;SDS011;21300;52.006;5.798;2023-08-06T02:35:49;9.60;;;7.95;;
35126;SDS011;21300;52.006;5.798;2023-08-06T02:38:15;11.95;;;9.43;;
35126;SDS011;21300;52.006;5.798;2023-08-06T02:40:44;10.13;;;8.63;;
35126;SDS011;21300;52.006;5.798;2023-08-06T02:43:10;11.38;;;10.18;;
35126;SDS011;21300;52.006;5.798;2023-08-06T02:45:36;11.98;;;9.15;;
35126;SDS011;21300;52.006;5.798;2023-08-06T02:48:02;12.15;;;10.07;;
35126;SDS011;21300;52.006;5.798;2023-08-06T02:50:27;15.48;;;10.48;;
35126;SDS011;21300;52.006;5.798;2023-08-06T02:52:53;11.60;;;10.40;;
35126;SDS011;21300;52.006;5.798;2023-08-06T02:55:19;14.57;;;11.63;;
35126;SDS011;21300;52.006;5.798;2023-08-06T02:57:44;13.50;;;12.10;;
35126;SDS011;21300;52.006;5.798;2023-08-06T03:00:10;15.32;;;12.38;;
35126;SDS011;21300;52.006;5.798;2023-08-06T03:02:36;14.40;;;12.90;;
35126;SDS011;21300;52.006;5.798;2023-08-06T03:05:02;14.40;;;12.55;;
35126;SDS011;21300;52.006;5.798;2023-08-06T03:07:28;14.18;;;12.70;;
35126;SDS011;21300;52.006;5.798;2023-08-06T03:09:54;15.07;;;12.95;;
35126;SDS011;21300;52.006;5.798;2023-08-06T03:12:20;13.98;;;12.38;;
35126;SDS011;21300;52.006;5.798;2023-08-06T03:14:46;13.93;;;12.52;;
35126;SDS011;21300;52.006;5.798;2023-08-06T03:17:11;18.95;;;12.02;;
35126;SDS011;21300;52.006;5.798;2023-08-06T03:19:37;14.05;;;11.40;;
35126;SDS011;21300;52.006;5.798;2023-08-06T03:22:03;13.20;;;11.80;;
35126;SDS011;21300;52.006;5.798;2023-08-06T03:24:29;14.30;;;10.55;;
35126;SDS011;21300;52.006;5.798;2023-08-06T03:26:54;12.85;;;10.20;;
35126;SDS011;21300;52.006;5.798;2023-08-06T03:29:20;14.10;;;11.13;;
35126;SDS011;21300;52.006;5.798;2023-08-06T03:31:46;11.98;;;9.93;;
35126;SDS011;21300;52.006;5.798;2023-08-06T03:34:12;13.75;;;9.50;;
35126;SDS011;21300;52.006;5.798;2023-08-06T03:36:37;10.60;;;9.50;;
35126;SDS011;21300;52.006;5.798;2023-08-06T03:39:03;11.73;;;9.23;;
35126;SDS011;21300;52.006;5.798;2023-08-06T03:41:29;13.23;;;10.23;;
35126;SDS011;21300;52.006;5.798;2023-08-06T03:43:54;10.15;;;9.13;;
35126;SDS011;21300;52.006;5.798;2023-08-06T03:46:20;9.68;;;8.32;;
35126;SDS011;21300;52.006;5.798;2023-08-06T03:48:45;10.40;;;7.80;;
35126;SDS011;21300;52.006;5.798;2023-08-06T03:51:11;9.88;;;8.43;;
35126;SDS011;21300;52.006;5.798;2023-08-06T03:53:36;9.73;;;7.72;;
35126;SDS011;21300;52.006;5.798;2023-08-06T03:56:02;10.68;;;7.90;;
35126;SDS011;21300;52.006;5.798;2023-08-06T03:58:28;9.98;;;8.25;;
35126;SDS011;21300;52.006;5.798;2023-08-06T04:00:59;8.13;;;7.25;;
35126;SDS011;21300;52.006;5.798;2023-08-06T04:03:26;11.65;;;7.45;;
35126;SDS011;21300;52.006;5.798;2023-08-06T04:05:52;9.63;;;7.93;;
35126;SDS011;21300;52.006;5.798;2023-08-06T04:08:17;10.50;;;7.47;;
35126;SDS011;21300;52.006;5.798;2023-08-06T04:10:43;9.60;;;7.57;;
35126;SDS011;21300;52.006;5.798;2023-08-06T04:13:08;11.10;;;7.38;;
35126;SDS011;21300;52.006;5.798;2023-08-06T04:15:34;8.45;;;6.90;;
35126;SDS011;21300;52.006;5.798;2023-08-06T04:18:00;9.15;;;6.88;;
35126;SDS011;21300;52.006;5.798;2023-08-06T04:20:25;7.68;;;6.80;;
35126;SDS011;21300;52.006;5.798;2023-08-06T04:22:51;7.50;;;6.70;;
35126;SDS011;21300;52.006;5.798;2023-08-06T04:25:18;7.38;;;6.20;;
35126;SDS011;21300;52.006;5.798;2023-08-06T04:27:46;7.22;;;6.43;;
35126;SDS011;21300;52.006;5.798;2023-08-06T04:30:12;8.35;;;6.05;;
35126;SDS011;21300;52.006;5.798;2023-08-06T04:32:38;12.75;;;6.88;;
35126;SDS011;21300;52.006;5.798;2023-08-06T04:35:04;6.88;;;5.70;;
35126;SDS011;21300;52.006;5.798;2023-08-06T04:37:30;7.57;;;6.10;;
35126;SDS011;21300;52.006;5.798;2023-08-06T04:39:56;7.88;;;5.88;;
35126;SDS011;21300;52.006;5.798;2023-08-06T04:42:21;6.18;;;5.20;;
35126;SDS011;21300;52.006;5.798;2023-08-06T04:44:47;6.95;;;5.75;;
35126;SDS011;21300;52.006;5.798;2023-08-06T04:47:12;7.63;;;6.05;;
35126;SDS011;21300;52.006;5.798;2023-08-06T04:49:38;9.30;;;5.93;;
35126;SDS011;21300;52.006;5.798;2023-08-06T04:52:04;6.72;;;5.97;;
35126;SDS011;21300;52.006;5.798;2023-08-06T04:54:30;7.97;;;6.00;;
35126;SDS011;21300;52.006;5.798;2023-08-06T04:56:55;7.15;;;6.20;;
35126;SDS011;21300;52.006;5.798;2023-08-06T04:59:21;7.97;;;5.80;;
35126;SDS011;21300;52.006;5.798;2023-08-06T05:01:46;7.03;;;6.18;;
35126;SDS011;21300;52.006;5.798;2023-08-06T05:04:12;9.80;;;7.38;;
35126;SDS011;21300;52.006;5.798;2023-08-06T05:06:37;9.25;;;7.00;;
35126;SDS011;21300;52.006;5.798;2023-08-06T05:09:03;9.07;;;7.43;;
35126;SDS011;21300;52.006;5.798;2023-08-06T05:11:30;11.13;;;7.45;;
35126;SDS011;21300;52.006;5.798;2023-08-06T05:13:55;9.93;;;8.15;;
35126;SDS011;21300;52.006;5.798;2023-08-06T05:16:21;10.10;;;8.27;;
35126;SDS011;21300;52.006;5.798;2023-08-06T05:18:46;9.52;;;8.25;;
35126;SDS011;21300;52.006;5.798;2023-08-06T05:21:12;8.93;;;7.55;;
35126;SDS011;21300;52.006;5.798;2023-08-06T05:23:37;10.85;;;8.38;;
35126;SDS011;21300;52.006;5.798;2023-08-06T05:26:03;9.50;;;7.20;;
35126;SDS011;21300;52.006;5.798;2023-08-06T05:28:28;12.45;;;9.10;;
35126;SDS011;21300;52.006;5.798;2023-08-06T05:30:54;10.25;;;8.50;;
35126;SDS011;21300;52.006;5.798;2023-08-06T05:33:20;10.13;;;8.73;;
35126;SDS011;21300;52.006;5.798;2023-08-06T05:35:45;10.10;;;9.00;;
35126;SDS011;21300;52.006;5.798;2023-08-06T05:38:11;12.02;;;10.55;;
35126;SDS011;21300;52.006;5.798;2023-08-06T05:40:36;14.20;;;11.32;;
35126;SDS011;21300;52.006;5.798;2023-08-06T05:43:02;13.98;;;11.65;;
35126;SDS011;21300;52.006;5.798;2023-08-06T05:45:27;13.70;;;12.23;;
35126;SDS011;21300;52.006;5.798;2023-08-06T05:47:53;15.07;;;11.40;;
35126;SDS011;21300;52.006;5.798;2023-08-06T05:50:22;17.45;;;12.48;;
35126;SDS011;21300;52.006;5.798;2023-08-06T05:52:48;19.40;;;12.57;;
35126;SDS011;21300;52.006;5.798;2023-08-06T05:55:13;14.80;;;12.82;;
35126;SDS011;21300;52.006;5.798;2023-08-06T05:57:39;17.98;;;13.27;;
35126;SDS011;21300;52.006;5.798;2023-08-06T06:00:05;19.52;;;15.13;;
35126;SDS011;21300;52.006;5.798;2023-08-06T06:02:31;19.17;;;14.85;;
35126;SDS011;21300;52.006;5.798;2023-08-06T06:04:57;19.05;;;14.98;;
35126;SDS011;21300;52.006;5.798;2023-08-06T06:07:22;22.30;;;15.90;;
35126;SDS011;21300;52.006;5.798;2023-08-06T06:09:48;18.77;;;15.55;;
35126;SDS011;21300;52.006;5.798;2023-08-06T06:12:13;21.98;;;16.35;;
35126;SDS011;21300;52.006;5.798;2023-08-06T06:14:39;20.52;;;15.85;;
35126;SDS011;21300;52.006;5.798;2023-08-06T06:17:04;21.98;;;17.00;;
35126;SDS011;21300;52.006;5.798;2023-08-06T06:19:30;21.52;;;17.02;;
35126;SDS011;21300;52.006;5.798;2023-08-06T06:21:56;23.30;;;16.85;;
35126;SDS011;21300;52.006;5.798;2023-08-06T06:24:22;20.88;;;16.23;;
35126;SDS011;21300;52.006;5.798;2023-08-06T06:26:48;22.80;;;16.98;;
35126;SDS011;21300;52.006;5.798;2023-08-06T06:29:14;22.70;;;16.98;;
35126;SDS011;21300;52.006;5.798;2023-08-06T06:31:39;24.50;;;17.50;;
35126;SDS011;21300;52.006;5.798;2023-08-06T06:34:05;23.45;;;17.80;;
35126;SDS011;21300;52.006;5.798;2023-08-06T06:36:30;21.92;;;17.13;;
35126;SDS011;21300;52.006;5.798;2023-08-06T06:38:56;21.13;;;17.23;;
35126;SDS011;21300;52.006;5.798;2023-08-06T06:41:21;22.55;;;17.63;;
35126;SDS011;21300;52.006;5.798;2023-08-06T06:43:47;23.77;;;17.55;;
35126;SDS011;21300;52.006;5.798;2023-08-06T06:46:12;26.15;;;17.77;;
35126;SDS011;21300;52.006;5.798;2023-08-06T06:48:38;22.15;;;16.65;;
35126;SDS011;21300;52.006;5.798;2023-08-06T06:51:03;22.58;;;17.63;;
35126;SDS011;21300;52.006;5.798;2023-08-06T06:53:29;25.38;;;18.98;;
35126;SDS011;21300;52.006;5.798;2023-08-06T06:56:04;25.80;;;19.02;;
35126;SDS011;21300;52.006;5.798;2023-08-06T06:58:30;27.63;;;19.35;;
35126;SDS011;21300;52.006;5.798;2023-08-06T07:00:56;24.30;;;19.00;;
35126;SDS011;21300;52.006;5.798;2023-08-06T07:03:22;28.17;;;19.63;;
35126;SDS011;21300;52.006;5.798;2023-08-06T07:05:48;26.17;;;19.48;;
35126;SDS011;21300;52.006;5.798;2023-08-06T07:08:14;26.10;;;18.77;;
35126;SDS011;21300;52.006;5.798;2023-08-06T07:10:40;26.45;;;19.98;;
35126;SDS011;21300;52.006;5.798;2023-08-06T07:13:08;23.42;;;19.05;;
35126;SDS011;21300;52.006;5.798;2023-08-06T07:15:34;24.67;;;19.05;;
35126;SDS011;21300;52.006;5.798;2023-08-06T07:18:00;23.35;;;18.20;;
35126;SDS011;21300;52.006;5.798;2023-08-06T07:20:26;25.02;;;18.60;;
35126;SDS011;21300;52.006;5.798;2023-08-06T07:22:54;24.27;;;18.10;;
35126;SDS011;21300;52.006;5.798;2023-08-06T07:25:19;25.70;;;18.13;;
35126;SDS011;21300;52.006;5.798;2023-08-06T07:27:45;21.63;;;17.02;;
35126;SDS011;21300;52.006;5.798;2023-08-06T07:30:11;22.83;;;17.48;;
35126;SDS011;21300;52.006;5.798;2023-08-06T07:32:36;23.35;;;18.00;;
35126;SDS011;21300;52.006;5.798;2023-08-06T07:35:02;24.27;;;17.95;;
35126;SDS011;21300;52.006;5.798;2023-08-06T07:37:28;24.40;;;18.80;;
35126;SDS011;21300;52.006;5.798;2023-08-06T07:39:54;22.70;;;17.40;;
35126;SDS011;21300;52.006;5.798;2023-08-06T07:42:19;24.52;;;17.92;;
35126;SDS011;21300;52.006;5.798;2023-08-06T07:44:55;28.85;;;18.50;;
35126;SDS011;21300;52.006;5.798;2023-08-06T07:47:22;23.30;;;18.88;;
35126;SDS011;21300;52.006;5.798;2023-08-06T07:49:48;22.77;;;17.40;;
35126;SDS011;21300;52.006;5.798;2023-08-06T07:52:13;24.27;;;18.10;;
35126;SDS011;21300;52.006;5.798;2023-08-06T07:54:39;22.00;;;17.20;;
35126;SDS011;21300;52.006;5.798;2023-08-06T07:57:04;22.48;;;17.27;;
35126;SDS011;21300;52.006;5.798;2023-08-06T07:59:30;22.13;;;16.70;;
35126;SDS011;21300;52.006;5.798;2023-08-06T08:01:56;22.33;;;17.23;;
35126;SDS011;21300;52.006;5.798;2023-08-06T08:04:21;21.80;;;16.80;;
35126;SDS011;21300;52.006;5.798;2023-08-06T08:06:47;23.30;;;17.10;;
35126;SDS011;21300;52.006;5.798;2023-08-06T08:09:13;20.30;;;16.35;;
35126;SDS011;21300;52.006;5.798;2023-08-06T08:11:39;19.42;;;15.55;;
35126;SDS011;21300;52.006;5.798;2023-08-06T08:14:05;20.15;;;14.88;;
35126;SDS011;21300;52.006;5.798;2023-08-06T08:16:31;20.95;;;15.52;;
35126;SDS011;21300;52.006;5.798;2023-08-06T08:19:15;19.03;;;15.33;;
35126;SDS011;21300;52.006;5.798;2023-08-06T08:21:41;17.52;;;13.60;;
35126;SDS011;21300;52.006;5.798;2023-08-06T08:24:07;16.40;;;13.57;;
35126;SDS011;21300;52.006;5.798;2023-08-06T08:26:33;16.02;;;12.23;;
35126;SDS011;21300;52.006;5.798;2023-08-06T08:28:58;17.23;;;12.35;;
35126;SDS011;21300;52.006;5.798;2023-08-06T08:31:24;14.93;;;12.02;;
35126;SDS011;21300;52.006;5.798;2023-08-06T08:33:49;15.05;;;11.63;;
35126;SDS011;21300;52.006;5.798;2023-08-06T08:36:15;17.00;;;12.40;;
35126;SDS011;21300;52.006;5.798;2023-08-06T08:38:41;19.02;;;11.80;;
35126;SDS011;21300;52.006;5.798;2023-08-06T08:41:06;15.68;;;11.23;;
35126;SDS011;21300;52.006;5.798;2023-08-06T08:43:35;14.07;;;11.18;;
35126;SDS011;21300;52.006;5.798;2023-08-06T08:46:01;16.83;;;11.98;;
35126;SDS011;21300;52.006;5.798;2023-08-06T08:48:46;12.55;;;10.63;;
35126;SDS011;21300;52.006;5.798;2023-08-06T08:51:12;12.25;;;10.70;;
35126;SDS011;21300;52.006;5.798;2023-08-06T08:53:38;13.50;;;10.63;;
35126;SDS011;21300;52.006;5.798;2023-08-06T08:56:04;14.80;;;10.50;;
35126;SDS011;21300;52.006;5.798;2023-08-06T08:58:31;13.40;;;10.18;;
35126;SDS011;21300;52.006;5.798;2023-08-06T09:00:57;12.23;;;10.70;;
35126;SDS011;21300;52.006;5.798;2023-08-06T09:03:23;14.07;;;11.80;;
35126;SDS011;21300;52.006;5.798;2023-08-06T09:05:50;14.27;;;11.38;;
35126;SDS011;21300;52.006;5.798;2023-08-06T09:08:21;14.10;;;11.45;;
35126;SDS011;21300;52.006;5.798;2023-08-06T09:10:52;12.73;;;10.93;;
35126;SDS011;21300;52.006;5.798;2023-08-06T09:13:19;12.80;;;10.38;;
35126;SDS011;21300;52.006;5.798;2023-08-06T09:15:46;11.27;;;9.90;;
35126;SDS011;21300;52.006;5.798;2023-08-06T09:18:11;11.10;;;8.88;;
35126;SDS011;21300;52.006;5.798;2023-08-06T09:20:40;9.57;;;8.48;;
35126;SDS011;21300;52.006;5.798;2023-08-06T09:23:07;9.80;;;8.73;;
35126;SDS011;21300;52.006;5.798;2023-08-06T09:25:39;9.38;;;8.38;;
35126;SDS011;21300;52.006;5.798;2023-08-06T09:28:07;8.40;;;7.50;;
35126;SDS011;21300;52.006;5.798;2023-08-06T09:30:34;8.00;;;7.20;;
35126;SDS011;21300;52.006;5.798;2023-08-06T09:33:01;7.82;;;6.47;;
35126;SDS011;21300;52.006;5.798;2023-08-06T09:35:29;9.07;;;8.13;;
35126;SDS011;21300;52.006;5.798;2023-08-06T09:38:05;9.98;;;8.18;;
35126;SDS011;21300;52.006;5.798;2023-08-06T09:40:35;12.52;;;11.23;;
35126;SDS011;21300;52.006;5.798;2023-08-06T09:43:01;14.27;;;11.35;;
35126;SDS011;21300;52.006;5.798;2023-08-06T09:45:37;15.55;;;12.80;;
35126;SDS011;21300;52.006;5.798;2023-08-06T09:48:03;18.92;;;15.48;;
35126;SDS011;21300;52.006;5.798;2023-08-06T09:50:31;18.75;;;15.93;;
35126;SDS011;21300;52.006;5.798;2023-08-06T09:52:58;19.35;;;15.80;;
35126;SDS011;21300;52.006;5.798;2023-08-06T09:55:24;19.83;;;16.48;;
35126;SDS011;21300;52.006;5.798;2023-08-06T09:57:51;21.38;;;18.85;;
35126;SDS011;21300;52.006;5.798;2023-08-06T10:00:17;20.50;;;17.23;;
35126;SDS011;21300;52.006;5.798;2023-08-06T10:02:43;20.45;;;18.25;;
35126;SDS011;21300;52.006;5.798;2023-08-06T10:05:10;21.08;;;18.63;;
35126;SDS011;21300;52.006;5.798;2023-08-06T10:07:35;19.10;;;16.92;;
35126;SDS011;21300;52.006;5.798;2023-08-06T10:10:04;9.27;;;7.38;;
35126;SDS011;21300;52.006;5.798;2023-08-06T10:12:32;5.88;;;4.63;;
35126;SDS011;21300;52.006;5.798;2023-08-06T10:15:09;2.92;;;2.10;;
35126;SDS011;21300;52.006;5.798;2023-08-06T10:17:37;4.63;;;2.45;;
35126;SDS011;21300;52.006;5.798;2023-08-06T10:20:04;2.13;;;1.77;;
35126;SDS011;21300;52.006;5.798;2023-08-06T10:22:32;2.08;;;1.52;;
35126;SDS011;21300;52.006;5.798;2023-08-06T10:24:59;2.15;;;1.40;;
35126;SDS011;21300;52.006;5.798;2023-08-06T10:27:35;1.17;;;0.77;;
35126;SDS011;21300;52.006;5.798;2023-08-06T10:33:00;1.67;;;1.05;;
35126;SDS011;21300;52.006;5.798;2023-08-06T10:35:28;1.33;;;1.00;;
35126;SDS011;21300;52.006;5.798;2023-08-06T10:38:07;1.42;;;0.90;;
35126;SDS011;21300;52.006;5.798;2023-08-06T10:40:40;2.10;;;1.45;;
35126;SDS011;21300;52.006;5.798;2023-08-06T10:43:07;2.88;;;1.35;;
35126;SDS011;21300;52.006;5.798;2023-08-06T10:45:49;2.90;;;1.50;;
35126;SDS011;21300;52.006;5.798;2023-08-06T10:48:28;2.78;;;1.92;;
35126;SDS011;21300;52.006;5.798;2023-08-06T10:51:07;3.33;;;1.75;;
35126;SDS011;21300;52.006;5.798;2023-08-06T10:53:37;3.90;;;2.30;;
35126;SDS011;21300;52.006;5.798;2023-08-06T10:56:23;4.63;;;2.20;;
35126;SDS011;21300;52.006;5.798;2023-08-06T11:01:56;2.92;;;1.60;;
35126;SDS011;21300;52.006;5.798;2023-08-06T11:04:22;2.22;;;1.55;;
35126;SDS011;21300;52.006;5.798;2023-08-06T11:06:52;3.75;;;2.03;;
35126;SDS011;21300;52.006;5.798;2023-08-06T11:09:18;4.82;;;2.13;;
35126;SDS011;21300;52.006;5.798;2023-08-06T11:11:44;4.43;;;2.08;;
35126;SDS011;21300;52.006;5.798;2023-08-06T11:14:14;3.03;;;2.00;;
35126;SDS011;21300;52.006;5.798;2023-08-06T11:16:40;5.70;;;2.35;;
35126;SDS011;21300;52.006;5.798;2023-08-06T11:19:07;5.13;;;2.70;;
35126;SDS011;21300;52.006;5.798;2023-08-06T11:21:33;5.53;;;2.53;;
35126;SDS011;21300;52.006;5.798;2023-08-06T11:23:58;4.38;;;2.60;;
35126;SDS011;21300;52.006;5.798;2023-08-06T11:26:24;3.38;;;2.70;;
35126;SDS011;21300;52.006;5.798;2023-08-06T11:28:50;4.82;;;2.70;;
35126;SDS011;21300;52.006;5.798;2023-08-06T11:31:19;6.05;;;3.08;;
35126;SDS011;21300;52.006;5.798;2023-08-06T11:33:45;4.82;;;3.60;;
35126;SDS011;21300;52.006;5.798;2023-08-06T11:36:11;5.10;;;3.88;;
35126;SDS011;21300;52.006;5.798;2023-08-06T11:38:37;5.53;;;4.30;;
35126;SDS011;21300;52.006;5.798;2023-08-06T11:41:02;6.43;;;4.50;;
35126;SDS011;21300;52.006;5.798;2023-08-06T11:43:29;5.43;;;4.28;;
35126;SDS011;21300;52.006;5.798;2023-08-06T11:45:56;7.95;;;4.30;;
35126;SDS011;21300;52.006;5.798;2023-08-06T11:48:21;9.57;;;3.65;;
35126;SDS011;21300;52.006;5.798;2023-08-06T11:50:47;6.57;;;3.97;;
35126;SDS011;21300;52.006;5.798;2023-08-06T11:53:13;5.60;;;3.35;;
35126;SDS011;21300;52.006;5.798;2023-08-06T11:55:39;3.78;;;2.70;;
35126;SDS011;21300;52.006;5.798;2023-08-06T11:58:05;4.63;;;3.03;;
35126;SDS011;21300;52.006;5.798;2023-08-06T12:00:31;6.72;;;2.78;;
35126;SDS011;21300;52.006;5.798;2023-08-06T12:02:57;6.78;;;3.05;;
35126;SDS011;21300;52.006;5.798;2023-08-06T12:05:23;4.03;;;2.70;;
35126;SDS011;21300;52.006;5.798;2023-08-06T12:07:58;4.78;;;3.05;;
35126;SDS011;21300;52.006;5.798;2023-08-06T12:10:25;6.50;;;3.60;;
35126;SDS011;21300;52.006;5.798;2023-08-06T12:12:52;5.47;;;3.08;;
35126;SDS011;21300;52.006;5.798;2023-08-06T12:15:19;5.53;;;3.30;;
35126;SDS011;21300;52.006;5.798;2023-08-06T12:17:45;5.40;;;3.30;;
35126;SDS011;21300;52.006;5.798;2023-08-06T12:20:10;4.35;;;3.15;;
35126;SDS011;21300;52.006;5.798;2023-08-06T12:22:37;6.90;;;3.63;;
35126;SDS011;21300;52.006;5.798;2023-08-06T12:25:04;6.40;;;4.28;;
35126;SDS011;21300;52.006;5.798;2023-08-06T12:27:35;5.40;;;3.80;;
35126;SDS011;21300;52.006;5.798;2023-08-06T12:30:01;6.40;;;3.75;;
35126;SDS011;21300;52.006;5.798;2023-08-06T12:32:28;6.97;;;4.00;;
35126;SDS011;21300;52.006;5.798;2023-08-06T12:34:54;5.38;;;3.53;;
35126;SDS011;21300;52.006;5.798;2023-08-06T12:37:19;5.72;;;3.28;;
35126;SDS011;21300;52.006;5.798;2023-08-06T12:39:45;5.47;;;3.85;;
35126;SDS011;21300;52.006;5.798;2023-08-06T12:42:11;7.35;;;3.65;;
35126;SDS011;21300;52.006;5.798;2023-08-06T12:44:36;5.93;;;3.47;;
35126;SDS011;21300;52.006;5.798;2023-08-06T12:47:02;5.15;;;2.97;;
35126;SDS011;21300;52.006;5.798;2023-08-06T12:49:27;8.02;;;2.95;;
35126;SDS011;21300;52.006;5.798;2023-08-06T12:51:54;6.72;;;2.55;;
35126;SDS011;21300;52.006;5.798;2023-08-06T12:54:21;5.90;;;2.90;;
35126;SDS011;21300;52.006;5.798;2023-08-06T12:56:47;3.75;;;2.72;;
35126;SDS011;21300;52.006;5.798;2023-08-06T12:59:14;5.88;;;3.03;;
35126;SDS011;21300;52.006;5.798;2023-08-06T13:01:40;5.00;;;2.97;;
35126;SDS011;21300;52.006;5.798;2023-08-06T13:04:06;7.53;;;3.15;;
35126;SDS011;21300;52.006;5.798;2023-08-06T13:06:32;4.78;;;3.03;;
35126;SDS011;21300;52.006;5.798;2023-08-06T13:09:05;5.03;;;3.00;;
35126;SDS011;21300;52.006;5.798;2023-08-06T13:11:32;6.75;;;3.00;;
35126;SDS011;21300;52.006;5.798;2023-08-06T13:14:31;8.50;;;2.97;;
35126;SDS011;21300;52.006;5.798;2023-08-06T13:16:49;5.40;;;3.00;;
35126;SDS011;21300;52.006;5.798;2023-08-06T13:19:15;4.95;;;2.65;;
35126;SDS011;21300;52.006;5.798;2023-08-06T13:24:06;4.90;;;3.03;;
35126;SDS011;21300;52.006;5.798;2023-08-06T13:26:32;5.63;;;2.85;;
35126;SDS011;21300;52.006;5.798;2023-08-06T13:28:58;4.40;;;3.00;;
35126;SDS011;21300;52.006;5.798;2023-08-06T13:31:24;3.88;;;2.70;;
35126;SDS011;21300;52.006;5.798;2023-08-06T13:33:50;7.63;;;2.60;;
35126;SDS011;21300;52.006;5.798;2023-08-06T13:36:16;3.97;;;2.88;;
35126;SDS011;21300;52.006;5.798;2023-08-06T13:38:42;5.88;;;2.90;;
35126;SDS011;21300;52.006;5.798;2023-08-06T13:41:08;4.85;;;2.65;;
35126;SDS011;21300;52.006;5.798;2023-08-06T13:43:33;5.57;;;2.53;;
35126;SDS011;21300;52.006;5.798;2023-08-06T13:45:59;4.45;;;2.67;;
35126;SDS011;21300;52.006;5.798;2023-08-06T13:48:25;5.28;;;2.90;;
35126;SDS011;21300;52.006;5.798;2023-08-06T13:50:50;5.93;;;3.58;;
35126;SDS011;21300;52.006;5.798;2023-08-06T13:53:16;6.28;;;3.05;;
35126;SDS011;21300;52.006;5.798;2023-08-06T13:55:41;7.43;;;3.42;;
35126;SDS011;21300;52.006;5.798;2023-08-06T13:58:07;5.97;;;3.55;;
35126;SDS011;21300;52.006;5.798;2023-08-06T14:00:33;6.93;;;3.40;;
35126;SDS011;21300;52.006;5.798;2023-08-06T14:03:00;5.93;;;2.83;;
35126;SDS011;21300;52.006;5.798;2023-08-06T14:05:45;5.95;;;2.92;;
35126;SDS011;21300;52.006;5.798;2023-08-06T14:08:10;7.60;;;3.38;;
35126;SDS011;21300;52.006;5.798;2023-08-06T14:10:36;5.78;;;3.00;;
35126;SDS011;21300;52.006;5.798;2023-08-06T14:13:01;5.05;;;3.50;;
35126;SDS011;21300;52.006;5.798;2023-08-06T14:15:27;5.70;;;3.10;;
35126;SDS011;21300;52.006;5.798;2023-08-06T14:17:52;4.90;;;3.20;;
35126;SDS011;21300;52.006;5.798;2023-08-06T14:20:18;4.72;;;3.22;;
35126;SDS011;21300;52.006;5.798;2023-08-06T14:22:44;4.43;;;2.97;;
35126;SDS011;21300;52.006;5.798;2023-08-06T14:25:09;5.25;;;3.50;;
35126;SDS011;21300;52.006;5.798;2023-08-06T14:27:35;7.05;;;3.25;;
35126;SDS011;21300;52.006;5.798;2023-08-06T14:30:00;4.38;;;3.03;;
35126;SDS011;21300;52.006;5.798;2023-08-06T14:32:28;4.13;;;3.40;;
35126;SDS011;21300;52.006;5.798;2023-08-06T14:34:53;5.40;;;2.95;;
35126;SDS011;21300;52.006;5.798;2023-08-06T14:37:19;5.25;;;3.33;;
35126;SDS011;21300;52.006;5.798;2023-08-06T14:39:45;6.68;;;3.25;;
35126;SDS011;21300;52.006;5.798;2023-08-06T14:42:10;6.18;;;3.40;;
35126;SDS011;21300;52.006;5.798;2023-08-06T14:44:36;5.05;;;3.30;;
35126;SDS011;21300;52.006;5.798;2023-08-06T14:47:01;5.78;;;3.13;;